Kaspiysk, Russia
Current Conditions -  °F | °C
As of 11:00 AM on Sunday 26 Oct 2014 (Local Time) from URML Reporting Station
Broken Clouds Broken Clouds  
Wind Chill: 30°   Ceiling: 10000
Heat Index: 36°   Visibility: 6mi
Dew Point: 27°   Wind: 7mph
Humidity: 70%   Direction: 350°N
Pressure: 30.62"   Gusts: NA
Location:  42.88°N, 47.64°E
Report Text: URML 260800Z 35003MPS 9999 BKN100 02/M03 Q1037 NOSIG RMKQFE777/1036
Loading
Personal Weather Stations






























Interactive Weather Map
Tropical Storm Tracking
New forecast layout! Learn more

10-Day Weather Forecast

Advertisements
Track Severe Weather on mobile